createdAt,value
2022-12-14T00:01:34.445Z,73.42
2022-12-14T00:04:01.117Z,73.60
2022-12-14T00:06:30.110Z,73.25
2022-12-14T00:08:59.858Z,73.18
2022-12-14T00:11:26.906Z,72.66
2022-12-14T00:13:59.812Z,73.19
2022-12-14T00:16:29.063Z,73.20
2022-12-14T00:18:57.380Z,73.61
2022-12-14T00:21:24.414Z,72.79
2022-12-14T00:23:52.583Z,73.27
2022-12-14T00:26:24.748Z,72.77
2022-12-14T00:28:52.992Z,72.88
2022-12-14T00:31:21.218Z,72.95
2022-12-14T00:33:48.767Z,73.38
2022-12-14T00:36:15.432Z,73.47
2022-12-14T00:38:43.205Z,73.11
2022-12-14T00:41:10.619Z,72.93
2022-12-14T00:43:37.756Z,72.65
2022-12-14T00:46:05.256Z,72.95
2022-12-14T00:48:32.932Z,73.22
2022-12-14T00:51:00.406Z,72.97
2022-12-14T00:53:27.082Z,73.85
2022-12-14T00:55:53.783Z,73.65
2022-12-14T00:58:23.205Z,72.79
2022-12-14T01:01:08.091Z,72.63
2022-12-14T01:03:35.033Z,72.34
2022-12-14T01:06:01.792Z,72.68
2022-12-14T01:08:35.318Z,72.16
2022-12-14T01:11:07.220Z,72.38
2022-12-14T01:13:34.593Z,72.19
2022-12-14T01:16:10.916Z,71.89
2022-12-14T01:18:39.122Z,72.22
2022-12-14T01:21:21.316Z,72.65
2022-12-14T01:23:51.478Z,72.55
2022-12-14T01:26:19.068Z,71.91
2022-12-14T01:28:46.657Z,71.79
2022-12-14T01:31:17.637Z,72.47
2022-12-14T01:33:45.251Z,72.23
2022-12-14T01:36:17.044Z,73.11
2022-12-14T01:38:44.617Z,72.44
2022-12-14T01:41:23.422Z,72.23
2022-12-14T01:43:53.145Z,72.27
2022-12-14T01:46:32.054Z,71.66
2022-12-14T01:49:06.287Z,71.79
2022-12-14T01:51:34.956Z,72.71
2022-12-14T01:54:04.647Z,72.75
2022-12-14T01:56:34.460Z,72.88
2022-12-14T01:59:05.603Z,72.59
2022-12-14T02:01:32.852Z,73.15
2022-12-14T02:04:01.098Z,73.35
2022-12-14T02:06:36.151Z,73.94
2022-12-14T02:09:09.465Z,73.42
2022-12-14T02:11:54.521Z,73.99
2022-12-14T02:14:21.513Z,73.56
2022-12-14T02:16:51.166Z,73.16
2022-12-14T02:19:17.726Z,73.03
2022-12-14T02:21:59.237Z,72.99
2022-12-14T02:24:53.549Z,73.52
2022-12-14T02:27:22.943Z,73.41
2022-12-14T02:30:03.775Z,73.17
2022-12-14T02:32:30.326Z,72.44
2022-12-14T02:35:11.332Z,72.70
2022-12-14T02:37:51.006Z,72.24
2022-12-14T02:40:36.268Z,72.76
2022-12-14T02:43:27.933Z,72.34
2022-12-14T02:46:20.162Z,72.77
2022-12-14T02:49:14.151Z,72.64
2022-12-14T02:52:06.721Z,73.25
2022-12-14T02:54:44.222Z,72.85
2022-12-14T02:57:23.107Z,73.77
2022-12-14T02:59:56.681Z,73.55
2022-12-14T03:02:25.352Z,73.42
2022-12-14T03:04:52.160Z,73.37
2022-12-14T03:07:34.055Z,74.35
2022-12-14T03:10:10.720Z,73.53
2022-12-14T03:12:42.490Z,73.32
2022-12-14T03:15:12.807Z,73.77
2022-12-14T03:17:41.549Z,73.64
2022-12-14T03:20:13.446Z,74.25
2022-12-14T03:22:47.209Z,73.12
2022-12-14T03:25:22.688Z,73.54
2022-12-14T03:28:16.270Z,73.57
2022-12-14T03:31:02.536Z,74.14
2022-12-14T03:33:31.902Z,74.21
2022-12-14T03:36:06.495Z,73.29
2022-12-14T03:38:41.099Z,73.71
2022-12-14T03:41:15.905Z,73.31
2022-12-14T03:44:08.344Z,74.16
2022-12-14T03:47:02.587Z,73.36
2022-12-14T03:50:01.341Z,74.25
2022-12-14T03:52:56.730Z,73.85
2022-12-14T03:55:27.471Z,73.38
2022-12-14T03:58:12.059Z,73.98
2022-12-14T04:00:56.862Z,73.93
2022-12-14T04:03:45.358Z,74.24
2022-12-14T04:06:39.432Z,73.80
2022-12-14T04:09:40.022Z,74.89
2022-12-14T04:12:30.303Z,74.00
2022-12-14T04:15:27.380Z,73.84
2022-12-14T04:18:17.219Z,74.82
2022-12-14T04:20:52.619Z,74.97
2022-12-14T04:23:52.126Z,74.63
2022-12-14T04:26:26.270Z,75.36
2022-12-14T04:29:18.019Z,73.80
2022-12-14T04:31:50.849Z,73.14
2022-12-14T04:34:21.631Z,73.97
2022-12-14T04:36:58.516Z,73.44
2022-12-14T04:39:50.458Z,73.10
2022-12-14T04:42:20.352Z,72.97
2022-12-14T04:44:54.366Z,74.10
2022-12-14T04:47:29.579Z,73.21
2022-12-14T04:50:09.959Z,74.25
2022-12-14T04:52:45.411Z,73.61
2022-12-14T04:55:19.108Z,74.93
2022-12-14T04:57:55.993Z,73.71
2022-12-14T05:00:23.142Z,74.30
2022-12-14T05:03:15.858Z,74.72
2022-12-14T05:06:13.317Z,74.82
2022-12-14T05:09:14.055Z,75.25
2022-12-14T05:12:19.787Z,75.48
2022-12-14T05:15:04.253Z,75.64
2022-12-14T05:17:31.026Z,75.53
2022-12-14T05:19:57.629Z,75.07
2022-12-14T05:22:24.232Z,75.07
2022-12-14T05:24:50.884Z,74.55
2022-12-14T05:27:17.466Z,74.58
2022-12-14T05:29:44.135Z,75.45
2022-12-14T05:32:13.939Z,75.25
2022-12-14T05:34:40.641Z,75.09
2022-12-14T05:37:08.099Z,75.01
2022-12-14T05:39:36.135Z,75.45
2022-12-14T05:42:02.740Z,75.41
2022-12-14T05:44:29.330Z,75.78
2022-12-14T05:46:56.030Z,74.66
2022-12-14T05:49:22.685Z,75.36
2022-12-14T05:51:49.461Z,75.82
2022-12-14T05:54:16.090Z,76.51
2022-12-14T05:56:42.723Z,76.64
2022-12-14T05:59:09.369Z,76.59
2022-12-14T06:01:36.018Z,76.85
2022-12-14T06:04:02.675Z,77.63
2022-12-14T06:06:29.322Z,78.13
2022-12-14T06:08:56.043Z,78.15
2022-12-14T06:11:23.737Z,78.73
2022-12-14T06:13:50.692Z,79.52
2022-12-14T06:16:21.373Z,79.88
2022-12-14T06:18:50.093Z,80.37
2022-12-14T06:21:18.771Z,82.46
2022-12-14T06:23:45.802Z,82.15
2022-12-14T06:26:14.010Z,83.67
2022-12-14T06:28:40.922Z,83.75
2022-12-14T06:31:08.377Z,82.83
2022-12-14T06:33:36.075Z,82.56
2022-12-14T06:36:03.479Z,81.83
2022-12-14T06:38:30.332Z,82.40
2022-12-14T06:40:57.010Z,83.85
2022-12-14T06:43:27.305Z,82.91
2022-12-14T06:45:54.715Z,82.49
2022-12-14T06:48:21.584Z,82.73
2022-12-14T06:50:48.203Z,82.23
2022-12-14T06:53:14.797Z,84.54
2022-12-14T06:55:41.588Z,83.23
2022-12-14T06:58:12.634Z,84.49
2022-12-14T07:00:39.330Z,84.32
2022-12-14T07:03:06.021Z,84.73
2022-12-14T07:05:32.641Z,84.49
2022-12-14T07:07:59.218Z,84.58
2022-12-14T07:10:25.787Z,84.82
2022-12-14T07:12:52.373Z,84.37
2022-12-14T07:15:18.999Z,84.44
2022-12-14T07:17:45.670Z,84.07
2022-12-14T07:20:12.386Z,84.14
2022-12-14T07:22:39.081Z,84.90
2022-12-14T07:25:06.176Z,85.33
2022-12-14T07:27:32.911Z,86.74
2022-12-14T07:29:59.485Z,85.03
2022-12-14T07:32:26.082Z,86.24
2022-12-14T07:34:52.718Z,86.34
2022-12-14T07:37:19.288Z,86.66
2022-12-14T07:39:45.905Z,86.68
2022-12-14T07:42:12.993Z,86.78
2022-12-14T07:44:47.062Z,85.91
2022-12-14T07:47:16.578Z,86.18
2022-12-14T07:49:43.908Z,86.58
2022-12-14T07:52:10.494Z,85.14
2022-12-14T07:54:37.086Z,85.31
2022-12-14T07:57:03.740Z,85.67
2022-12-14T07:59:30.335Z,85.43
2022-12-14T08:01:56.981Z,84.68
2022-12-14T08:04:23.897Z,83.97
2022-12-14T08:06:50.971Z,83.97
2022-12-14T08:09:17.654Z,84.39
2022-12-14T08:11:44.397Z,84.59
2022-12-14T08:14:14.790Z,84.81
2022-12-14T08:16:41.379Z,85.34
2022-12-14T08:19:07.978Z,84.03
2022-12-14T08:21:34.557Z,84.98
2022-12-14T08:24:01.514Z,85.77
2022-12-14T08:26:34.918Z,84.75
2022-12-14T08:29:02.502Z,85.78
2022-12-14T08:31:29.315Z,85.36
2022-12-14T08:33:56.251Z,83.61
2022-12-14T08:36:25.208Z,84.08
2022-12-14T08:38:53.711Z,83.80
2022-12-14T08:41:20.760Z,84.45
2022-12-14T08:43:54.840Z,83.97
2022-12-14T08:46:22.252Z,83.70
2022-12-14T08:48:52.451Z,84.05
2022-12-14T08:51:19.756Z,83.68
2022-12-14T08:53:48.053Z,82.33
2022-12-14T08:56:20.451Z,82.65
2022-12-14T08:58:47.284Z,84.11
2022-12-14T09:01:16.467Z,82.56
2022-12-14T09:03:45.300Z,83.47
2022-12-14T09:06:18.227Z,81.18
2022-12-14T09:08:45.180Z,81.12
2022-12-14T09:11:13.751Z,81.19
2022-12-14T09:13:40.943Z,81.51
2022-12-14T09:16:10.338Z,81.74
2022-12-14T09:18:36.993Z,81.84
2022-12-14T09:21:04.312Z,80.88
2022-12-14T09:23:33.335Z,80.86
2022-12-14T09:26:02.133Z,80.64
2022-12-14T09:28:30.051Z,79.46
2022-12-14T09:30:58.645Z,78.94
2022-12-14T09:33:26.519Z,78.73
2022-12-14T09:35:53.487Z,78.67
2022-12-14T09:38:20.559Z,78.74
2022-12-14T09:40:57.572Z,79.13
2022-12-14T09:43:38.163Z,79.33
2022-12-14T09:46:19.238Z,79.60
2022-12-14T09:48:46.164Z,79.99
2022-12-14T09:51:16.829Z,79.47
2022-12-14T09:53:47.559Z,78.76
2022-12-14T09:56:19.971Z,78.81
2022-12-14T09:58:54.499Z,79.82
2022-12-14T10:01:22.210Z,78.98
2022-12-14T10:04:19.380Z,79.58
2022-12-14T10:06:58.094Z,78.99
2022-12-14T10:09:39.559Z,78.17
2022-12-14T10:12:34.196Z,78.21
2022-12-14T10:15:07.276Z,78.21
2022-12-14T10:17:49.133Z,78.84
2022-12-14T10:20:35.303Z,78.33
2022-12-14T10:23:02.798Z,78.19
2022-12-14T10:25:32.719Z,77.73
2022-12-14T10:28:16.030Z,77.79
2022-12-14T10:30:43.705Z,77.92
2022-12-14T10:33:29.529Z,76.87
2022-12-14T10:36:09.091Z,77.04
2022-12-14T10:38:58.916Z,76.59
2022-12-14T10:41:43.695Z,76.67
2022-12-14T10:47:57.783Z,75.51
2022-12-14T10:51:07.232Z,75.70
2022-12-14T10:53:58.097Z,75.19
2022-12-14T10:56:33.775Z,74.34
2022-12-14T10:59:18.786Z,73.19
2022-12-14T11:01:47.223Z,74.04
2022-12-14T11:04:25.334Z,75.23
2022-12-14T11:06:51.929Z,75.11
2022-12-14T11:09:23.359Z,75.71
2022-12-14T11:12:04.540Z,76.20
2022-12-14T11:14:32.022Z,75.88
2022-12-14T11:16:58.787Z,75.80
2022-12-14T11:19:27.142Z,75.28
2022-12-14T11:22:22.017Z,75.35
2022-12-14T11:24:49.084Z,74.70
2022-12-14T11:27:19.862Z,73.98
2022-12-14T11:29:49.307Z,73.52
2022-12-14T11:32:25.583Z,73.41
2022-12-14T11:34:56.393Z,74.15
2022-12-14T11:37:31.615Z,73.93
2022-12-14T11:40:04.802Z,74.43
2022-12-14T11:42:31.749Z,74.99
2022-12-14T11:45:32.817Z,73.87
2022-12-14T11:48:14.417Z,74.08
2022-12-14T11:50:45.717Z,74.75
2022-12-14T11:53:15.081Z,74.36
2022-12-14T11:56:04.872Z,75.47
2022-12-14T11:58:35.654Z,75.22
2022-12-14T12:01:04.949Z,75.40
2022-12-14T12:03:36.994Z,74.72
2022-12-14T12:06:07.203Z,73.84
2022-12-14T12:08:37.770Z,73.13
2022-12-14T12:11:14.527Z,72.49
2022-12-14T12:13:45.051Z,73.00
2022-12-14T12:16:21.210Z,73.11
2022-12-14T12:18:59.928Z,73.03
2022-12-14T12:21:28.162Z,72.88
2022-12-14T12:24:19.195Z,73.41
2022-12-14T12:26:56.287Z,73.74
2022-12-14T12:29:40.589Z,73.97
2022-12-14T12:32:15.818Z,73.45
2022-12-14T12:34:51.571Z,74.69
2022-12-14T12:37:29.768Z,73.79
2022-12-14T12:40:10.014Z,73.02
2022-12-14T12:42:55.247Z,74.16
2022-12-14T12:45:30.673Z,75.81
2022-12-14T12:48:13.852Z,75.43
2022-12-14T12:50:49.707Z,75.01
2022-12-14T12:53:35.836Z,75.32
2022-12-14T12:56:06.668Z,74.75
2022-12-14T12:58:36.804Z,75.06
2022-12-14T13:01:34.543Z,73.92
2022-12-14T13:04:05.168Z,73.71
2022-12-14T13:06:43.369Z,73.24
2022-12-14T13:09:19.750Z,73.79
2022-12-14T13:11:47.604Z,74.66
2022-12-14T13:14:34.831Z,74.49
2022-12-14T13:17:05.841Z,74.59
2022-12-14T13:20:00.996Z,75.21
2022-12-14T13:22:33.522Z,74.33
2022-12-14T13:25:14.313Z,75.24
2022-12-14T13:27:44.020Z,74.84
2022-12-14T13:30:22.958Z,75.23
2022-12-14T13:33:09.476Z,75.38
2022-12-14T13:35:44.831Z,74.95
2022-12-14T13:38:20.333Z,74.32
2022-12-14T13:40:56.161Z,75.03
2022-12-14T13:43:22.687Z,77.27
2022-12-14T13:45:49.963Z,75.10
2022-12-14T13:48:32.280Z,75.51
2022-12-14T13:51:05.526Z,74.52
2022-12-14T13:53:37.021Z,75.82
2022-12-14T13:56:04.563Z,75.11
2022-12-14T13:58:36.771Z,76.22
2022-12-14T14:01:09.399Z,76.29
2022-12-14T14:03:36.144Z,77.11
2022-12-14T14:06:11.683Z,76.75
2022-12-14T14:08:42.320Z,75.86
2022-12-14T14:11:36.368Z,76.45
2022-12-14T14:14:29.229Z,77.62
2022-12-14T14:17:26.894Z,77.30
2022-12-14T14:19:56.380Z,76.63
2022-12-14T14:22:26.308Z,77.64
2022-12-14T14:25:21.917Z,78.05
2022-12-14T14:27:50.851Z,77.96
2022-12-14T14:30:25.099Z,78.25
2022-12-14T14:32:53.983Z,78.54
2022-12-14T14:35:35.785Z,79.51
2022-12-14T14:38:24.907Z,78.84
2022-12-14T14:41:16.071Z,80.59
2022-12-14T14:43:50.639Z,79.34
2022-12-14T14:46:22.407Z,80.55
2022-12-14T14:48:56.817Z,79.52
2022-12-14T14:51:28.372Z,79.67
2022-12-14T14:57:32.857Z,82.00
2022-12-14T15:00:02.384Z,81.39
2022-12-14T15:02:51.884Z,81.02
2022-12-14T15:05:41.865Z,81.66
2022-12-14T15:08:18.372Z,81.64
2022-12-14T15:10:46.592Z,82.46
2022-12-14T15:13:23.900Z,82.30
2022-12-14T15:15:53.272Z,83.17
2022-12-14T15:18:25.670Z,83.59
2022-12-14T15:21:13.648Z,83.33
2022-12-14T15:23:45.449Z,84.23
2022-12-14T15:26:28.544Z,82.57
2022-12-14T15:28:58.248Z,82.86
2022-12-14T15:31:34.782Z,82.52
2022-12-14T15:34:02.954Z,83.08
2022-12-14T15:36:35.389Z,83.01
2022-12-14T15:39:02.003Z,83.58
2022-12-14T15:41:32.303Z,82.87
2022-12-14T15:44:00.760Z,82.49
2022-12-14T15:46:35.651Z,83.20
2022-12-14T15:49:10.654Z,83.45
2022-12-14T15:51:40.189Z,83.70
2022-12-14T15:54:15.294Z,83.59
2022-12-14T15:56:45.086Z,83.25
2022-12-14T15:59:22.257Z,84.08
2022-12-14T16:01:56.128Z,84.77
2022-12-14T16:04:27.945Z,84.74
2022-12-14T16:07:07.888Z,85.17
2022-12-14T16:09:41.093Z,85.71
2022-12-14T16:12:17.022Z,85.29
2022-12-14T16:14:50.753Z,85.42
2022-12-14T16:17:23.115Z,84.55
2022-12-14T16:19:59.865Z,85.03
2022-12-14T16:22:32.053Z,85.82
2022-12-14T16:25:07.921Z,84.70
2022-12-14T16:27:42.892Z,85.43
2022-12-14T16:30:17.582Z,85.55
2022-12-14T16:32:49.850Z,85.85
2022-12-14T16:35:23.490Z,86.00
2022-12-14T16:37:55.776Z,87.24
2022-12-14T16:40:34.640Z,87.88
2022-12-14T16:43:02.819Z,88.07
2022-12-14T16:45:35.602Z,88.03
2022-12-14T16:48:06.625Z,88.89
2022-12-14T16:50:55.596Z,88.35
2022-12-14T16:53:31.353Z,88.33
2022-12-14T16:56:05.846Z,87.58
2022-12-14T16:58:34.322Z,87.58
2022-12-14T17:01:03.589Z,88.05
2022-12-14T17:03:31.936Z,88.49
2022-12-14T17:06:05.122Z,87.79
2022-12-14T17:08:33.530Z,88.79
2022-12-14T17:11:00.506Z,87.42
2022-12-14T17:13:27.412Z,88.91
2022-12-14T17:16:02.529Z,87.76
2022-12-14T17:18:39.323Z,88.57
2022-12-14T17:21:07.488Z,89.59
2022-12-14T17:23:38.092Z,88.64
2022-12-14T17:26:04.837Z,88.67
2022-12-14T17:28:34.606Z,90.05
2022-12-14T17:31:02.887Z,90.00
2022-12-14T17:33:31.426Z,90.42
2022-12-14T17:35:58.415Z,90.67
2022-12-14T17:38:25.000Z,90.99
2022-12-14T17:40:53.744Z,91.35
2022-12-14T17:43:25.389Z,91.19
2022-12-14T17:45:52.900Z,90.82
2022-12-14T17:48:20.044Z,90.51
2022-12-14T17:50:49.775Z,91.07
2022-12-14T17:53:20.794Z,89.60
2022-12-14T17:55:47.452Z,90.79
2022-12-14T17:58:14.092Z,90.78
2022-12-14T18:00:59.495Z,90.93
2022-12-14T18:03:27.033Z,91.38
2022-12-14T18:05:54.015Z,91.14
2022-12-14T18:08:22.348Z,89.95
2022-12-14T18:10:53.087Z,90.01
2022-12-14T18:13:19.791Z,90.61
2022-12-14T18:15:49.688Z,90.51
2022-12-14T18:18:18.392Z,92.16
2022-12-14T18:20:49.519Z,90.91
2022-12-14T18:23:20.179Z,91.37
2022-12-14T18:25:50.740Z,91.25
2022-12-14T18:28:18.092Z,90.86
2022-12-14T18:30:50.754Z,89.43
2022-12-14T18:33:20.612Z,88.88
2022-12-14T18:35:49.923Z,89.06
2022-12-14T18:38:16.792Z,88.86
2022-12-14T18:40:49.682Z,89.04
2022-12-14T18:43:23.695Z,89.66
2022-12-14T18:45:52.807Z,89.94
2022-12-14T18:48:19.943Z,89.58
2022-12-14T18:50:49.684Z,89.96
2022-12-14T18:53:18.687Z,90.72
2022-12-14T18:55:45.540Z,91.61
2022-12-14T18:58:18.831Z,90.75
2022-12-14T19:00:47.588Z,89.07
2022-12-14T19:03:15.281Z,89.47
2022-12-14T19:05:42.348Z,88.58
2022-12-14T19:08:10.300Z,88.89
2022-12-14T19:10:40.356Z,89.40
2022-12-14T19:13:07.170Z,89.58
2022-12-14T19:15:35.518Z,89.60
2022-12-14T19:18:02.492Z,89.22
2022-12-14T19:20:30.242Z,89.51
2022-12-14T19:22:57.575Z,87.99
2022-12-14T19:25:24.741Z,87.86
2022-12-14T19:30:39.277Z,88.61
2022-12-14T19:33:06.270Z,88.79
2022-12-14T19:35:32.918Z,88.37
2022-12-14T19:37:59.551Z,88.40
2022-12-14T19:40:26.570Z,87.56
2022-12-14T19:42:53.249Z,87.63
2022-12-14T19:45:19.954Z,86.51
2022-12-14T19:47:46.642Z,86.69
2022-12-14T19:50:15.469Z,86.68
2022-12-14T19:52:43.405Z,87.08
2022-12-14T19:55:11.171Z,87.62
2022-12-14T19:57:39.178Z,87.64
2022-12-14T20:00:09.308Z,87.86
2022-12-14T20:02:38.718Z,87.71
2022-12-14T20:05:06.653Z,87.56
2022-12-14T20:07:36.263Z,87.24
2022-12-14T20:10:05.843Z,88.25
2022-12-14T20:12:35.872Z,87.97
2022-12-14T20:15:02.504Z,87.52
2022-12-14T20:17:29.262Z,87.22
2022-12-14T20:19:55.851Z,86.33
2022-12-14T20:22:22.458Z,87.21
2022-12-14T20:24:49.806Z,86.78
2022-12-14T20:27:16.595Z,86.35
2022-12-14T20:29:43.258Z,82.32
2022-12-14T20:32:09.952Z,82.12
2022-12-14T20:34:39.125Z,82.00
2022-12-14T20:37:06.606Z,82.52
2022-12-14T20:39:33.254Z,81.76
2022-12-14T20:41:59.926Z,82.42
2022-12-14T20:44:26.578Z,83.87
2022-12-14T20:46:53.273Z,85.26
2022-12-14T20:49:21.307Z,84.52
2022-12-14T20:51:48.590Z,83.26
2022-12-14T20:54:17.805Z,85.45
2022-12-14T20:56:49.423Z,86.11
2022-12-14T20:59:16.783Z,84.47
2022-12-14T21:01:43.936Z,84.27
2022-12-14T21:04:10.695Z,85.60
2022-12-14T21:06:39.775Z,87.72
2022-12-14T21:09:10.341Z,86.52
2022-12-14T21:11:58.487Z,85.49
2022-12-14T21:14:30.738Z,84.99
2022-12-14T21:16:57.370Z,91.61
2022-12-14T21:19:24.693Z,91.75
2022-12-14T21:21:53.740Z,83.64
2022-12-14T21:24:44.702Z,82.64
2022-12-14T21:27:09.808Z,81.62
2022-12-14T21:29:36.395Z,83.25
2022-12-14T21:32:04.300Z,84.79
2022-12-14T21:34:31.906Z,84.85
2022-12-14T21:36:59.581Z,84.43
2022-12-14T21:39:26.540Z,83.46
2022-12-14T21:42:11.979Z,83.94
2022-12-14T21:44:45.922Z,83.67
2022-12-14T21:47:18.547Z,83.25
2022-12-14T21:49:46.306Z,83.43
2022-12-14T21:52:20.295Z,82.03
2022-12-14T21:54:47.298Z,82.76
2022-12-14T21:57:34.787Z,84.55
2022-12-14T22:00:02.072Z,84.84
2022-12-14T22:02:40.304Z,84.97
2022-12-14T22:05:07.519Z,83.70
2022-12-14T22:07:34.748Z,84.18
2022-12-14T22:10:01.701Z,83.78
2022-12-14T22:12:28.534Z,83.62
2022-12-14T22:14:55.295Z,82.67
2022-12-14T22:17:21.916Z,84.32
2022-12-14T22:19:50.843Z,84.65
2022-12-14T22:22:17.631Z,85.52
2022-12-14T22:24:47.641Z,82.97
2022-12-14T22:27:14.936Z,82.92
2022-12-14T22:29:41.855Z,82.40
2022-12-14T22:32:11.588Z,84.02
2022-12-14T22:34:38.408Z,83.56
2022-12-14T22:37:05.062Z,84.41
2022-12-14T22:39:31.653Z,84.46
2022-12-14T22:41:58.273Z,82.78
2022-12-14T22:44:24.832Z,83.24
2022-12-14T22:46:51.505Z,82.67
2022-12-14T22:49:19.905Z,82.57
2022-12-14T22:51:46.796Z,84.91
2022-12-14T22:54:25.223Z,83.63
2022-12-14T22:56:58.538Z,84.14
2022-12-14T22:59:33.736Z,84.77
2022-12-14T23:02:00.626Z,82.89
2022-12-14T23:04:27.397Z,84.66
2022-12-14T23:06:54.880Z,83.10
2022-12-14T23:09:40.440Z,83.85
2022-12-14T23:12:26.109Z,83.14
2022-12-14T23:15:11.287Z,81.89
2022-12-14T23:17:56.563Z,83.10
2022-12-14T23:20:41.942Z,83.74
2022-12-14T23:23:28.376Z,84.40
2022-12-14T23:26:14.820Z,85.48
2022-12-14T23:29:00.199Z,84.62
2022-12-14T23:31:45.389Z,84.90
2022-12-14T23:34:30.601Z,84.37
2022-12-14T23:37:20.120Z,83.79
2022-12-14T23:40:06.796Z,84.94
2022-12-14T23:42:52.411Z,84.38
2022-12-14T23:45:37.785Z,84.76
2022-12-14T23:48:22.938Z,83.82
2022-12-14T23:51:08.160Z,83.45
2022-12-14T23:53:53.316Z,83.56
2022-12-14T23:56:38.612Z,83.05
2022-12-14T23:59:29.778Z,84.34
